PST: 09:26 MST: 10:26 CST: 11:26 EST: 12:26 LDN: 17:26 UTC: 16:26
User Agent: CCBot/2.0 (http://commoncrawl.org/faq/)
IP Address: 54.162.132.134
Hostname: ec2-54-162-132-134.compute-1.amazonaws.com

METAR:
KBFI 251553Z 00000KT 10SM CLR 19/12 A3004 RMK AO2 SLP170 T01940122
KBFI 251453Z VRB03KT 10SM CLR 18/12 A3003 RMK AO2 SLP169 T01780122 51010
KBFI 251353Z 00000KT 10SM CLR 16/12 A3002 RMK AO2 SLP167 T01610122
KBFI 251253Z 00000KT 10SM CLR 16/12 A3002 RMK AO2 SLP165 T01610117

TAF:
KBFI 251120Z 2512/2612 36004KT P6SM FEW250
FM 251700 31004KT P6SM SKC

KBFI 250520Z 2506/2606 36004KT P6SM SKC
FM 251700 31004KT P6SM SKC

KBFI 242320Z 2500/2524 33006KT P6SM FEW250
FM 250600 00000KT P6SM SKC
FM 251700 31004KT P6SM SKC

KBFI 241720Z 2418/2518 32006KT P6SM FEW250
FM 250600 00000KT P6SM SKC
FM 251700 31004KT P6SM SKC